createdAt,value
2018-03-16T00:00:44.091Z,81.23
2018-03-16T00:01:41.686Z,80.6
2018-03-16T00:02:42.924Z,80.87
2018-03-16T00:03:39.830Z,81.28
2018-03-16T00:04:39.824Z,81.1
2018-03-16T00:05:39.827Z,81.45
2018-03-16T00:06:39.823Z,81.66
2018-03-16T00:07:39.822Z,81.18
2018-03-16T00:08:39.828Z,80.9
2018-03-16T00:09:39.833Z,81.02
2018-03-16T00:10:39.831Z,81.62
2018-03-16T00:11:39.839Z,81.28
2018-03-16T00:12:39.846Z,82.29
2018-03-16T00:13:39.847Z,82.62
2018-03-16T00:14:39.853Z,81.6
2018-03-16T00:15:39.858Z,80.93
2018-03-16T00:16:39.870Z,80.91
2018-03-16T00:17:39.875Z,80.7
2018-03-16T00:18:39.875Z,81.49
2018-03-16T00:19:39.897Z,81.85
2018-03-16T00:20:39.878Z,81.58
2018-03-16T00:21:39.883Z,81.26
2018-03-16T00:22:39.887Z,81.5
2018-03-16T00:23:39.894Z,81.7
2018-03-16T00:24:39.923Z,81.16
2018-03-16T00:25:39.951Z,81.33
2018-03-16T00:26:39.900Z,81.25
2018-03-16T00:27:39.899Z,81.59
2018-03-16T00:28:40.065Z,81.84
2018-03-16T00:29:39.914Z,82.18
2018-03-16T00:30:39.907Z,81.23
2018-03-16T00:31:39.911Z,81.18
2018-03-16T00:32:39.916Z,81.05
2018-03-16T00:33:39.951Z,81.45
2018-03-16T00:34:39.926Z,82.14
2018-03-16T00:35:39.928Z,81.24
2018-03-16T00:36:39.939Z,80.95
2018-03-16T00:37:39.941Z,81.27
2018-03-16T00:38:39.964Z,81.72
2018-03-16T00:39:39.940Z,81.34
2018-03-16T00:40:39.945Z,81.47
2018-03-16T00:41:39.955Z,81.34
2018-03-16T00:42:39.961Z,81.89
2018-03-16T00:43:40.000Z,81.77
2018-03-16T00:44:39.966Z,81.21
2018-03-16T00:45:39.968Z,81.04
2018-03-16T00:46:39.974Z,80.84
2018-03-16T00:47:39.974Z,81
2018-03-16T00:48:39.998Z,82.02
2018-03-16T00:49:39.980Z,81.49
2018-03-16T00:50:39.981Z,81.27
2018-03-16T00:51:39.984Z,81.24
2018-03-16T00:52:39.983Z,81.87
2018-03-16T00:53:40.115Z,81.81
2018-03-16T00:54:39.998Z,81.72
2018-03-16T00:55:39.992Z,81.58
2018-03-16T00:56:39.999Z,81.57
2018-03-16T00:57:40.008Z,82.01
2018-03-16T00:58:40.156Z,82.25
2018-03-16T00:59:40.000Z,81.69
2018-03-16T01:00:40.000Z,82.05
2018-03-16T01:01:40.002Z,81.35
2018-03-16T01:02:40.010Z,81.71
2018-03-16T01:03:40.040Z,81.85
2018-03-16T01:04:40.017Z,82.54
2018-03-16T01:05:40.021Z,82.01
2018-03-16T01:06:40.030Z,82.18
2018-03-16T01:07:40.031Z,81.92
2018-03-16T01:08:40.052Z,82.3
2018-03-16T01:09:40.032Z,82.27
2018-03-16T01:10:40.043Z,81.68
2018-03-16T01:11:40.046Z,82.23
2018-03-16T01:12:40.045Z,82.11
2018-03-16T01:13:40.049Z,82.57
2018-03-16T01:14:40.079Z,82
2018-03-16T01:15:40.061Z,82.24
2018-03-16T01:16:40.068Z,82.62
2018-03-16T01:17:40.070Z,82.24
2018-03-16T01:18:40.081Z,82.76
2018-03-16T01:19:40.105Z,82.33
2018-03-16T01:20:40.092Z,82.57
2018-03-16T01:21:40.099Z,82.7
2018-03-16T01:22:40.102Z,82.68
2018-03-16T01:23:40.111Z,82.58
2018-03-16T01:24:40.157Z,82.61
2018-03-16T01:25:40.118Z,82.93
2018-03-16T01:26:40.116Z,83.04
2018-03-16T01:27:40.124Z,83.15
2018-03-16T01:28:40.124Z,82.87
2018-03-16T01:29:40.151Z,82.52
2018-03-16T01:30:40.140Z,83.62
2018-03-16T01:31:40.144Z,83
2018-03-16T01:32:40.142Z,82.7
2018-03-16T01:33:40.142Z,82.76
2018-03-16T01:34:40.170Z,82.68
2018-03-16T01:35:40.165Z,83.27
2018-03-16T01:36:40.148Z,82.84
2018-03-16T01:37:40.152Z,83.23
2018-03-16T01:38:40.158Z,83.29
2018-03-16T01:39:40.165Z,82.91
2018-03-16T01:40:40.172Z,84.29
2018-03-16T01:41:40.174Z,83.53
2018-03-16T01:42:40.170Z,84.66
2018-03-16T01:43:40.187Z,84
2018-03-16T01:44:40.180Z,84.22
2018-03-16T01:45:40.201Z,84.21
2018-03-16T01:46:40.176Z,84.43
2018-03-16T01:47:40.181Z,84.34
2018-03-16T01:48:40.185Z,83.67
2018-03-16T01:49:40.207Z,83.48
2018-03-16T01:50:40.226Z,84.47
2018-03-16T01:51:40.195Z,85.23
2018-03-16T01:52:40.209Z,83.98
2018-03-16T01:53:40.200Z,83.57
2018-03-16T01:54:40.202Z,84.44
2018-03-16T01:55:40.206Z,85.13
2018-03-16T01:56:40.216Z,85.26
2018-03-16T01:57:40.204Z,85.19
2018-03-16T01:58:40.210Z,85.19
2018-03-16T01:59:40.216Z,84.13
2018-03-16T02:00:40.244Z,84.03
2018-03-16T02:01:40.216Z,84.26
2018-03-16T02:02:40.220Z,84.36
2018-03-16T02:03:40.214Z,85.01
2018-03-16T02:04:40.222Z,85.13
2018-03-16T02:05:40.218Z,85.5
2018-03-16T02:06:40.228Z,86.1
2018-03-16T02:07:40.231Z,85.13
2018-03-16T02:08:40.237Z,84.48
2018-03-16T02:09:40.245Z,85.17
2018-03-16T02:10:40.249Z,85.03
2018-03-16T02:11:40.304Z,84.16
2018-03-16T02:12:40.255Z,84.33
2018-03-16T02:13:40.265Z,84.91
2018-03-16T02:14:40.264Z,84.88
2018-03-16T02:15:40.288Z,84.68
2018-03-16T02:16:40.266Z,85.03
2018-03-16T02:17:40.267Z,85.05
2018-03-16T02:18:40.271Z,84.65
2018-03-16T02:19:40.275Z,85.4
2018-03-16T02:20:40.302Z,84.72
2018-03-16T02:21:40.281Z,84.84
2018-03-16T02:22:40.290Z,84.71
2018-03-16T02:23:40.287Z,84.71
2018-03-16T02:24:40.289Z,84.77
2018-03-16T02:25:40.311Z,85.2
2018-03-16T02:26:40.298Z,85.41
2018-03-16T02:27:40.303Z,84.81
2018-03-16T02:28:40.312Z,85.83
2018-03-16T02:29:40.309Z,84.87
2018-03-16T02:30:40.344Z,84.71
2018-03-16T02:31:40.309Z,84.2
2018-03-16T02:32:40.316Z,84.6
2018-03-16T02:33:40.316Z,85.77
2018-03-16T02:34:40.323Z,85.51
2018-03-16T02:35:40.355Z,84.82
2018-03-16T02:36:40.328Z,84.72
2018-03-16T02:37:40.331Z,84.5
2018-03-16T02:38:40.331Z,85.14
2018-03-16T02:39:40.337Z,85.14
2018-03-16T02:40:40.366Z,85.03
2018-03-16T02:41:40.340Z,84.99
2018-03-16T02:42:40.338Z,84.58
2018-03-16T02:43:40.337Z,84.72
2018-03-16T02:44:40.343Z,85.18
2018-03-16T02:45:40.375Z,84.95
2018-03-16T02:46:40.344Z,85.5
2018-03-16T02:47:40.349Z,85.17
2018-03-16T02:48:40.361Z,84.9
2018-03-16T02:49:40.360Z,84.58
2018-03-16T02:50:40.386Z,85.16
2018-03-16T02:51:40.373Z,85.17
2018-03-16T02:52:40.373Z,85.19
2018-03-16T02:53:40.386Z,85.72
2018-03-16T02:54:40.380Z,85.21
2018-03-16T02:55:40.390Z,85.1
2018-03-16T02:56:40.380Z,85.66
2018-03-16T02:57:40.394Z,85.47
2018-03-16T02:58:40.397Z,85.57
2018-03-16T02:59:40.401Z,85.66
2018-03-16T03:00:40.412Z,85.89
2018-03-16T03:01:40.430Z,85.6
2018-03-16T03:02:40.412Z,86.23
2018-03-16T03:03:40.442Z,86.11
2018-03-16T03:04:40.434Z,85.99
2018-03-16T03:05:40.426Z,86.5
2018-03-16T03:06:40.469Z,86.24
2018-03-16T03:07:40.439Z,86.31
2018-03-16T03:08:40.460Z,86.08
2018-03-16T03:09:40.445Z,86.38
2018-03-16T03:10:40.458Z,86.18
2018-03-16T03:11:40.449Z,86.44
2018-03-16T03:12:40.453Z,86.15
2018-03-16T03:13:40.470Z,86.67
2018-03-16T03:14:40.451Z,86.35
2018-03-16T03:15:40.485Z,86.17
2018-03-16T03:16:40.467Z,86.58
2018-03-16T03:17:40.468Z,86.51
2018-03-16T03:18:40.549Z,86.93
2018-03-16T03:19:40.473Z,87.1
2018-03-16T03:20:40.499Z,86.73
2018-03-16T03:21:40.703Z,87.72
2018-03-16T03:22:40.479Z,87.47
2018-03-16T03:23:40.485Z,86.75
2018-03-16T03:24:40.487Z,86.68
2018-03-16T03:25:40.497Z,86.45
2018-03-16T03:26:40.520Z,86.26
2018-03-16T03:27:40.492Z,86.22
2018-03-16T03:28:40.499Z,86.3
2018-03-16T03:29:40.492Z,86.26
2018-03-16T03:30:40.493Z,86.57
2018-03-16T03:31:40.501Z,86.42
2018-03-16T03:32:40.527Z,87.08
2018-03-16T03:33:40.503Z,87.21
2018-03-16T03:34:40.506Z,87.66
2018-03-16T03:35:40.511Z,87.65
2018-03-16T03:36:40.517Z,87.33
2018-03-16T03:37:40.537Z,87.22
2018-03-16T03:38:40.527Z,87.73
2018-03-16T03:39:40.527Z,87.12
2018-03-16T03:40:40.531Z,87.11
2018-03-16T03:41:40.584Z,87.84
2018-03-16T03:42:40.531Z,87.54
2018-03-16T03:43:40.544Z,86.35
2018-03-16T03:44:40.546Z,87.26
2018-03-16T03:45:40.555Z,87.09
2018-03-16T03:46:40.556Z,87.89
2018-03-16T03:47:40.561Z,87.36
2018-03-16T03:48:40.575Z,87.24
2018-03-16T03:49:40.563Z,87.57
2018-03-16T03:50:40.568Z,86.92
2018-03-16T03:51:40.574Z,87.86
2018-03-16T03:52:40.590Z,88.27
2018-03-16T03:53:40.565Z,87.22
2018-03-16T03:54:40.561Z,87.77
2018-03-16T03:55:40.572Z,87.55
2018-03-16T03:56:40.579Z,87.83
2018-03-16T03:57:40.578Z,87.8
2018-03-16T03:58:40.591Z,88.23
2018-03-16T03:59:40.611Z,87.77
2018-03-16T04:00:40.591Z,87.94
2018-03-16T04:01:40.592Z,87.62
2018-03-16T04:02:40.761Z,87.31
2018-03-16T04:03:40.602Z,86.84
2018-03-16T04:04:40.609Z,87.22
2018-03-16T04:05:40.613Z,87.64
2018-03-16T04:06:40.609Z,87.41
2018-03-16T04:07:40.623Z,87.6
2018-03-16T04:08:40.643Z,87.07
2018-03-16T04:09:40.606Z,87.23
2018-03-16T04:10:40.612Z,86.79
2018-03-16T04:11:40.625Z,86.69
2018-03-16T04:12:40.635Z,86.93
2018-03-16T04:13:40.615Z,87.32
2018-03-16T04:14:40.612Z,87.45
2018-03-16T04:15:40.614Z,88.46
2018-03-16T04:16:40.623Z,87.53
2018-03-16T04:17:40.620Z,87.73
2018-03-16T04:18:40.649Z,87.85
2018-03-16T04:19:40.637Z,87.49
2018-03-16T04:20:40.622Z,88.87
2018-03-16T04:21:40.625Z,88.37
2018-03-16T04:22:40.629Z,88.3
2018-03-16T04:23:40.629Z,88.03
2018-03-16T04:24:40.657Z,87.92
2018-03-16T04:25:40.641Z,88.31
2018-03-16T04:26:40.643Z,87.74
2018-03-16T04:27:40.642Z,87.96
2018-03-16T04:28:40.648Z,88.48
2018-03-16T04:29:40.673Z,88.31
2018-03-16T04:30:40.659Z,87.87
2018-03-16T04:31:40.674Z,87.51
2018-03-16T04:32:40.669Z,88.08
2018-03-16T04:33:40.677Z,88.68
2018-03-16T04:34:40.705Z,87.97
2018-03-16T04:35:40.680Z,88.09
2018-03-16T04:36:40.693Z,87.77
2018-03-16T04:37:40.697Z,89.15
2018-03-16T04:38:40.698Z,88.25
2018-03-16T04:39:40.700Z,88.09
2018-03-16T04:40:40.701Z,88.19
2018-03-16T04:41:40.876Z,88.55
2018-03-16T04:42:40.713Z,88.25
2018-03-16T04:43:40.715Z,88.08
2018-03-16T04:44:40.713Z,87.89
2018-03-16T04:45:40.722Z,88.55
2018-03-16T04:46:40.746Z,88.05
2018-03-16T04:47:40.752Z,88.02
2018-03-16T04:48:40.731Z,88.23
2018-03-16T04:49:40.728Z,88.3
2018-03-16T04:50:40.734Z,88.72
2018-03-16T04:51:40.754Z,88.4
2018-03-16T04:52:40.744Z,88.65
2018-03-16T04:53:40.750Z,88.37
2018-03-16T04:54:40.743Z,89.31
2018-03-16T04:55:40.746Z,89.1
2018-03-16T04:56:40.802Z,88.3
2018-03-16T04:57:40.784Z,88.27
2018-03-16T04:58:40.764Z,88.26
2018-03-16T04:59:40.766Z,88.1
2018-03-16T05:00:40.769Z,87.62
2018-03-16T05:01:40.774Z,87.73
2018-03-16T05:02:40.795Z,88.1
2018-03-16T05:03:40.787Z,88.33
2018-03-16T05:04:40.772Z,88.51
2018-03-16T05:05:40.776Z,88.79
2018-03-16T05:06:40.778Z,88.17
2018-03-16T05:07:40.787Z,87.89
2018-03-16T05:08:40.818Z,87.9
2018-03-16T05:09:40.811Z,87.69
2018-03-16T05:10:40.798Z,88.56
2018-03-16T05:11:40.802Z,88.23
2018-03-16T05:12:40.827Z,88.2
2018-03-16T05:13:40.819Z,87.86
2018-03-16T05:14:40.843Z,87.69
2018-03-16T05:15:40.949Z,87.98
2018-03-16T05:16:40.813Z,88.2
2018-03-16T05:17:40.826Z,87.78
2018-03-16T05:18:40.877Z,87.91
2018-03-16T05:19:40.833Z,88.04
2018-03-16T05:20:40.852Z,87.68
2018-03-16T05:21:40.861Z,87.58
2018-03-16T05:22:40.855Z,88.05
2018-03-16T05:23:40.862Z,88.21
2018-03-16T05:24:41.025Z,87.73
2018-03-16T05:25:40.959Z,88.32
2018-03-16T05:26:40.895Z,87.77
2018-03-16T05:27:40.867Z,88.43
2018-03-16T05:28:40.892Z,88.49
2018-03-16T05:29:40.871Z,89.48
2018-03-16T05:30:40.957Z,89.01
2018-03-16T05:31:40.899Z,88.14
2018-03-16T05:32:40.879Z,88.61
2018-03-16T05:33:40.891Z,89.01
2018-03-16T05:34:40.884Z,88.39
2018-03-16T05:35:40.890Z,87.74
2018-03-16T05:36:41.166Z,88.17
2018-03-16T05:37:40.906Z,88.31
2018-03-16T05:38:40.903Z,88.3
2018-03-16T05:39:40.910Z,88.32
2018-03-16T05:40:40.950Z,88.14
2018-03-16T05:41:40.935Z,87.87
2018-03-16T05:42:40.925Z,88.9
2018-03-16T05:43:40.925Z,88.68
2018-03-16T05:44:40.926Z,88.59
2018-03-16T05:45:40.940Z,88.08
2018-03-16T05:46:40.942Z,88.11
2018-03-16T05:47:40.943Z,88.07
2018-03-16T05:48:40.941Z,88.06
2018-03-16T05:49:40.949Z,87.83
2018-03-16T05:50:40.955Z,87.62
2018-03-16T05:51:40.949Z,87.77
2018-03-16T05:52:40.989Z,87.77
2018-03-16T05:53:41.017Z,87.97
2018-03-16T05:54:40.964Z,87.77
2018-03-16T05:55:40.965Z,87.98
2018-03-16T05:56:41.006Z,87.87
2018-03-16T05:57:41.092Z,87.92
2018-03-16T05:58:40.977Z,87.96
2018-03-16T05:59:40.974Z,88.36
2018-03-16T06:00:40.997Z,88
2018-03-16T06:01:40.998Z,87.62
2018-03-16T06:02:41.014Z,87.43
2018-03-16T06:03:41.026Z,87.71
2018-03-16T06:04:40.998Z,87.88
2018-03-16T06:05:41.001Z,87.43
2018-03-16T06:06:41.002Z,87.05
2018-03-16T06:07:41.013Z,86.99
2018-03-16T06:08:41.027Z,86.98
2018-03-16T06:09:41.005Z,87.36
2018-03-16T06:10:41.011Z,87.32
2018-03-16T06:11:41.023Z,87.05
2018-03-16T06:12:41.015Z,86.9
2018-03-16T06:13:41.041Z,87.23
2018-03-16T06:14:41.024Z,87.14
2018-03-16T06:15:41.023Z,87.08
2018-03-16T06:16:41.057Z,86.89
2018-03-16T06:17:41.072Z,87.07
2018-03-16T06:18:41.482Z,87.26
2018-03-16T06:19:41.035Z,87.27
2018-03-16T06:20:41.035Z,87.18
2018-03-16T06:21:41.045Z,87.07
2018-03-16T06:22:41.052Z,87.72
2018-03-16T06:23:41.077Z,87.48
2018-03-16T06:24:41.061Z,87.7
2018-03-16T06:25:41.068Z,87.78
2018-03-16T06:26:41.065Z,88.01
2018-03-16T06:27:41.064Z,88.13
2018-03-16T06:28:41.070Z,87.76
2018-03-16T06:29:41.076Z,88.07
2018-03-16T06:30:41.080Z,87.99
2018-03-16T06:31:41.078Z,87.54
2018-03-16T06:32:41.082Z,87.83
2018-03-16T06:33:41.084Z,88.35
2018-03-16T06:34:41.103Z,88.14
2018-03-16T06:35:41.092Z,88.31
2018-03-16T06:36:41.099Z,88.04
2018-03-16T06:37:41.102Z,88.25
2018-03-16T06:38:41.109Z,87.98
2018-03-16T06:39:41.134Z,88.22
2018-03-16T06:40:41.114Z,87.66
2018-03-16T06:41:41.140Z,88.29
2018-03-16T06:42:41.123Z,88.34
2018-03-16T06:43:41.125Z,88.27
2018-03-16T06:44:41.310Z,88.27
2018-03-16T06:45:41.134Z,88.01
2018-03-16T06:46:41.161Z,87.73
2018-03-16T06:47:41.153Z,87.82
2018-03-16T06:48:41.128Z,88.17
2018-03-16T06:49:41.128Z,87.86
2018-03-16T06:50:41.127Z,88.38
2018-03-16T06:51:41.265Z,88.4
2018-03-16T06:52:41.138Z,88.47
2018-03-16T06:53:41.143Z,88.72
2018-03-16T06:54:41.157Z,88.18
2018-03-16T06:55:41.153Z,88.41
2018-03-16T06:56:41.205Z,88.77
2018-03-16T06:57:41.162Z,88.84
2018-03-16T06:58:41.163Z,88.76
2018-03-16T06:59:41.169Z,88.78
2018-03-16T07:00:41.172Z,88.88
2018-03-16T07:01:41.173Z,88.51
2018-03-16T07:02:41.176Z,87.99
2018-03-16T07:03:41.190Z,88.54
2018-03-16T07:04:41.183Z,88.6
2018-03-16T07:05:41.220Z,88.53
2018-03-16T07:06:41.188Z,88.91
2018-03-16T07:07:41.199Z,89.06
2018-03-16T07:08:41.203Z,88.75
2018-03-16T07:09:41.207Z,88.49
2018-03-16T07:10:41.214Z,89.33
2018-03-16T07:11:41.209Z,88.97
2018-03-16T07:12:41.312Z,88.72
2018-03-16T07:13:41.214Z,89.09
2018-03-16T07:14:41.222Z,89.15
2018-03-16T07:15:41.238Z,89.26
2018-03-16T07:16:41.213Z,89.24
2018-03-16T07:17:41.227Z,88.86
2018-03-16T07:18:41.232Z,88.59
2018-03-16T07:19:41.327Z,88.98
2018-03-16T07:20:41.262Z,88.89
2018-03-16T07:21:41.229Z,88.7
2018-03-16T07:22:41.248Z,88.69
2018-03-16T07:23:41.244Z,88.19
2018-03-16T07:24:41.249Z,88.43
2018-03-16T07:25:41.267Z,88.58
2018-03-16T07:26:41.269Z,88.77
2018-03-16T07:27:41.259Z,88.97
2018-03-16T07:28:41.292Z,89.18
2018-03-16T07:29:41.265Z,89.49
2018-03-16T07:30:41.345Z,89.26
2018-03-16T07:31:41.278Z,88.98
2018-03-16T07:32:41.286Z,89.01
2018-03-16T07:33:41.283Z,89.14
2018-03-16T07:34:41.283Z,89.14
2018-03-16T07:35:41.278Z,89.44
2018-03-16T07:36:41.307Z,89.78
2018-03-16T07:37:41.294Z,89.18
2018-03-16T07:38:41.297Z,89.73
2018-03-16T07:39:41.290Z,89.43
2018-03-16T07:40:41.296Z,89.43
2018-03-16T07:41:41.333Z,89.1
2018-03-16T07:42:41.307Z,89.09
2018-03-16T07:43:41.316Z,88.74
2018-03-16T07:44:41.318Z,89.12
2018-03-16T07:45:41.328Z,89.06
2018-03-16T07:46:41.360Z,89.13
2018-03-16T07:47:41.324Z,88.73
2018-03-16T07:48:41.345Z,89.06
2018-03-16T07:49:41.330Z,89.27
2018-03-16T07:50:41.336Z,88.98
2018-03-16T07:51:41.351Z,88.81
2018-03-16T07:52:41.420Z,88.77
2018-03-16T07:53:41.340Z,88.57
2018-03-16T07:54:41.337Z,89.07
2018-03-16T07:55:41.381Z,89.39
2018-03-16T07:56:41.370Z,89.05
2018-03-16T07:57:41.349Z,89.21
2018-03-16T07:58:41.347Z,88.74
2018-03-16T07:59:41.354Z,89.23
2018-03-16T08:00:41.364Z,89.82
2018-03-16T08:01:41.385Z,89.66
2018-03-16T08:02:41.374Z,89.37
2018-03-16T08:03:41.373Z,89.64
2018-03-16T08:04:41.381Z,89.92
2018-03-16T08:05:41.383Z,89.59
2018-03-16T08:06:41.437Z,89.69
2018-03-16T08:07:41.379Z,89.6
2018-03-16T08:08:41.435Z,90.28
2018-03-16T08:09:41.393Z,89.58
2018-03-16T08:10:41.405Z,90.35
2018-03-16T08:11:41.426Z,90.02
2018-03-16T08:12:41.413Z,90.55
2018-03-16T08:13:41.409Z,90.24
2018-03-16T08:14:41.409Z,90.56
2018-03-16T08:15:41.406Z,91.28
2018-03-16T08:16:41.440Z,91.37
2018-03-16T08:17:41.409Z,91.01
2018-03-16T08:18:41.416Z,90.75
2018-03-16T08:19:41.419Z,90.58
2018-03-16T08:20:41.417Z,91
2018-03-16T08:21:41.447Z,90.79
2018-03-16T08:22:41.437Z,91.38
2018-03-16T08:23:41.437Z,91.16
2018-03-16T08:24:41.428Z,91.04
2018-03-16T08:25:41.429Z,90.72
2018-03-16T08:26:41.453Z,91.5
2018-03-16T08:27:41.435Z,91.31
2018-03-16T08:28:41.441Z,91.37
2018-03-16T08:29:41.446Z,91.71
2018-03-16T08:30:41.454Z,91.31
2018-03-16T08:31:41.464Z,91.01
2018-03-16T08:32:41.461Z,91.39
2018-03-16T08:33:41.462Z,91.4
2018-03-16T08:34:41.484Z,91.19
2018-03-16T08:35:41.454Z,91.52
2018-03-16T08:36:41.470Z,91.12
2018-03-16T08:37:41.461Z,91.06
2018-03-16T08:38:41.465Z,90.92
2018-03-16T08:39:41.470Z,91.71
2018-03-16T08:40:41.480Z,91.43
2018-03-16T08:41:41.474Z,90.9
2018-03-16T08:42:41.478Z,90.97
2018-03-16T08:43:41.748Z,90.69
2018-03-16T08:44:41.478Z,90.2
2018-03-16T08:45:41.483Z,90.71
2018-03-16T08:46:41.482Z,90.98
2018-03-16T08:47:41.488Z,91.49
2018-03-16T08:48:41.517Z,91.15
2018-03-16T08:49:41.506Z,91.11
2018-03-16T08:50:41.507Z,91.02
2018-03-16T08:51:41.517Z,90.79
2018-03-16T08:52:41.511Z,91.12
2018-03-16T08:53:41.543Z,91.37
2018-03-16T08:54:41.521Z,91.62
2018-03-16T08:55:41.531Z,91.67
2018-03-16T08:56:41.534Z,91.42
2018-03-16T08:57:41.534Z,91.55
2018-03-16T08:58:41.561Z,91.52
2018-03-16T08:59:41.547Z,91.73
2018-03-16T09:00:41.551Z,92.18
2018-03-16T09:01:41.546Z,91.98
2018-03-16T09:02:41.553Z,91.99
2018-03-16T09:03:41.576Z,91.82
2018-03-16T09:04:41.562Z,92.07
2018-03-16T09:05:41.555Z,92.41
2018-03-16T09:06:41.558Z,92.04
2018-03-16T09:07:41.569Z,92.12
2018-03-16T09:08:41.594Z,92.37
2018-03-16T09:09:41.578Z,91.91
2018-03-16T09:10:41.579Z,92.03
2018-03-16T09:11:41.578Z,92.4
2018-03-16T09:12:41.577Z,92.3
2018-03-16T09:13:41.583Z,92.21
2018-03-16T09:14:41.619Z,92.19
2018-03-16T09:15:41.593Z,92.1
2018-03-16T09:16:41.587Z,92.38
2018-03-16T09:17:41.595Z,92.28
2018-03-16T09:18:41.604Z,92.59
2018-03-16T09:19:41.622Z,92.52
2018-03-16T09:20:41.597Z,92.64
2018-03-16T09:21:41.601Z,92.75
2018-03-16T09:22:41.608Z,92.9
2018-03-16T09:23:41.616Z,92.86
2018-03-16T09:24:41.623Z,92.88
2018-03-16T09:25:41.623Z,92.78
2018-03-16T09:26:41.631Z,92.27
2018-03-16T09:27:41.622Z,92.52
2018-03-16T09:28:41.627Z,92.73
2018-03-16T09:29:41.679Z,92.33
2018-03-16T09:30:41.640Z,92.76
2018-03-16T09:31:41.645Z,92.82
2018-03-16T09:32:41.755Z,92.5
2018-03-16T09:33:41.636Z,92.67
2018-03-16T09:34:41.674Z,92.8
2018-03-16T09:35:41.650Z,92.7
2018-03-16T09:36:41.640Z,92.65
2018-03-16T09:37:41.652Z,92.92
2018-03-16T09:38:41.649Z,92.71
2018-03-16T09:39:41.687Z,92.27
2018-03-16T09:40:41.664Z,92.66
2018-03-16T09:41:41.665Z,92.98
2018-03-16T09:42:41.665Z,92.76
2018-03-16T09:43:41.669Z,92.78
2018-03-16T09:44:41.695Z,92.82
2018-03-16T09:45:41.680Z,92.77
2018-03-16T09:46:41.683Z,92.71
2018-03-16T09:47:41.695Z,92.55
2018-03-16T09:48:41.698Z,92.71
2018-03-16T09:49:41.721Z,92.49
2018-03-16T09:50:41.768Z,92.65
2018-03-16T09:51:41.713Z,93.5
2018-03-16T09:52:41.719Z,93.14
2018-03-16T09:53:41.720Z,92.73
2018-03-16T09:54:41.740Z,92.87
2018-03-16T09:55:41.718Z,92.99
2018-03-16T09:56:41.988Z,92.79
2018-03-16T09:57:41.736Z,92.77
2018-03-16T09:58:41.743Z,93.28
2018-03-16T09:59:41.743Z,93.14
2018-03-16T10:00:41.744Z,93.14
2018-03-16T10:01:41.767Z,93.1
2018-03-16T10:02:41.745Z,93.13
2018-03-16T10:03:41.753Z,93.01
2018-03-16T10:04:41.753Z,93.47
2018-03-16T10:05:41.750Z,93.33
2018-03-16T10:06:41.775Z,93.01
2018-03-16T10:07:41.752Z,92.99
2018-03-16T10:08:41.757Z,92.88
2018-03-16T10:09:41.779Z,93.57
2018-03-16T10:10:41.765Z,93.32
2018-03-16T10:11:41.771Z,93.15
2018-03-16T10:12:41.772Z,93.2
2018-03-16T10:13:41.775Z,93.18
2018-03-16T10:14:41.777Z,92.91
2018-03-16T10:15:41.782Z,93.08
2018-03-16T10:16:41.799Z,92.83
2018-03-16T10:17:41.823Z,92.78
2018-03-16T10:18:41.788Z,92.87
2018-03-16T10:19:42.075Z,93.18
2018-03-16T10:20:41.789Z,92.87
2018-03-16T10:21:41.798Z,92.23
2018-03-16T10:22:41.793Z,92.49
2018-03-16T10:23:41.797Z,93.44
2018-03-16T10:24:41.820Z,92.66
2018-03-16T10:25:41.804Z,93.74
2018-03-16T10:26:41.802Z,93.92
2018-03-16T10:27:41.840Z,93.59
2018-03-16T10:28:41.797Z,94.04
2018-03-16T10:29:41.804Z,93.34
2018-03-16T10:30:41.804Z,93.38
2018-03-16T10:31:41.812Z,93.71
2018-03-16T10:32:41.813Z,94.04
2018-03-16T10:33:41.814Z,94.04
2018-03-16T10:34:41.820Z,93.54
2018-03-16T10:35:41.841Z,93.66
2018-03-16T10:36:41.825Z,93.87
2018-03-16T10:37:41.836Z,93.38
2018-03-16T10:38:41.831Z,94.01
2018-03-16T10:39:41.874Z,93.54
2018-03-16T10:40:41.861Z,94.3
2018-03-16T10:41:41.837Z,94.18
2018-03-16T10:42:41.840Z,93.8
2018-03-16T10:43:41.846Z,94.09
2018-03-16T10:44:41.852Z,94.29
2018-03-16T10:45:42.116Z,94.11
2018-03-16T10:46:41.850Z,93.86
2018-03-16T10:47:41.853Z,92.96
2018-03-16T10:48:41.848Z,92.9
2018-03-16T10:49:41.857Z,93.4
2018-03-16T10:50:41.885Z,93.78
2018-03-16T10:51:41.868Z,93.43
2018-03-16T10:52:41.874Z,93.11
2018-03-16T10:53:41.871Z,92.63
2018-03-16T10:54:41.871Z,92.18
2018-03-16T10:55:41.890Z,91.87
2018-03-16T10:56:41.897Z,92.86
2018-03-16T10:57:41.882Z,94.28
2018-03-16T10:58:41.886Z,93.73
2018-03-16T10:59:41.896Z,94.73
2018-03-16T11:00:41.962Z,94.9
2018-03-16T11:01:41.903Z,93.7
2018-03-16T11:02:41.911Z,93.87
2018-03-16T11:03:41.911Z,93.36
2018-03-16T11:04:41.917Z,92.93
2018-03-16T11:05:41.920Z,92.42
2018-03-16T11:06:42.045Z,93.39
2018-03-16T11:07:41.929Z,91.22
2018-03-16T11:08:41.925Z,90.54
2018-03-16T11:09:41.928Z,91.39
2018-03-16T11:10:41.932Z,91.63
2018-03-16T11:11:42.218Z,91.2
2018-03-16T11:12:41.926Z,91.25
2018-03-16T11:13:41.935Z,91.14
2018-03-16T11:14:41.935Z,91.09
2018-03-16T11:15:41.936Z,91.38
2018-03-16T11:16:41.971Z,92.52
2018-03-16T11:17:41.937Z,90.63
2018-03-16T11:18:41.947Z,90.44
2018-03-16T11:19:41.939Z,90.92
2018-03-16T11:20:41.943Z,90.98
2018-03-16T11:21:41.937Z,90.96
2018-03-16T11:22:41.941Z,91.05
2018-03-16T11:23:41.950Z,90.93
2018-03-16T11:24:41.958Z,90.93
2018-03-16T11:25:41.962Z,91.11
2018-03-16T11:26:41.966Z,90.48
2018-03-16T11:27:41.982Z,90.57
2018-03-16T11:28:41.961Z,90.46
2018-03-16T11:29:41.966Z,91.73
2018-03-16T11:30:41.964Z,93.13
2018-03-16T11:31:41.974Z,92.15
2018-03-16T11:32:41.962Z,91.49
2018-03-16T11:33:41.964Z,91.44
2018-03-16T11:34:41.967Z,92.39
2018-03-16T11:35:41.961Z,92.14
2018-03-16T11:36:42.103Z,91.53
2018-03-16T11:37:41.976Z,91.97
2018-03-16T11:38:41.984Z,92.9
2018-03-16T11:39:41.982Z,91.32
2018-03-16T11:40:41.987Z,91.02
2018-03-16T11:41:42.010Z,90.98
2018-03-16T11:42:42.000Z,90.87
2018-03-16T11:43:42.010Z,91.2
2018-03-16T11:44:42.011Z,89.4
2018-03-16T11:45:42.019Z,89.92
2018-03-16T11:46:42.039Z,89.59
2018-03-16T11:47:42.019Z,88
2018-03-16T11:48:42.022Z,87.96
2018-03-16T11:49:42.027Z,87.95
2018-03-16T11:50:42.045Z,88.47
2018-03-16T11:51:42.060Z,89.2
2018-03-16T11:52:42.038Z,88.91
2018-03-16T11:53:42.037Z,87.06
2018-03-16T11:54:42.039Z,87.72
2018-03-16T11:55:42.041Z,87.79
2018-03-16T11:56:42.069Z,87.74
2018-03-16T11:57:42.045Z,87.74
2018-03-16T11:58:42.061Z,87.58
2018-03-16T11:59:42.078Z,87.51
2018-03-16T12:00:42.063Z,87.21
2018-03-16T12:01:42.081Z,86.58
2018-03-16T12:02:42.071Z,86.21
2018-03-16T12:03:42.065Z,86.47
2018-03-16T12:04:42.063Z,85.98
2018-03-16T12:05:42.898Z,85.75
2018-03-16T12:06:43.783Z,84.52
2018-03-16T12:07:42.073Z,84.92
2018-03-16T12:08:42.075Z,84.51
2018-03-16T12:09:42.081Z,84.64
2018-03-16T12:10:42.113Z,84.12
2018-03-16T12:11:42.083Z,84.15
2018-03-16T12:12:42.109Z,83.12
2018-03-16T12:13:42.091Z,83.49
2018-03-16T12:14:42.103Z,83.97
2018-03-16T12:15:42.100Z,84.12
2018-03-16T12:16:42.129Z,83.21
2018-03-16T12:17:42.107Z,82.72
2018-03-16T12:18:42.123Z,83.48
2018-03-16T12:19:42.120Z,83.95
2018-03-16T12:20:42.110Z,84.53
2018-03-16T12:21:42.158Z,83.57
2018-03-16T12:22:42.135Z,83.52
2018-03-16T12:23:42.144Z,83.7
2018-03-16T12:24:42.126Z,83.78
2018-03-16T12:25:42.135Z,83.23
2018-03-16T12:26:42.267Z,83.57
2018-03-16T12:27:42.170Z,83.04
2018-03-16T12:28:49.814Z,82.61
2018-03-16T12:29:42.152Z,82.61
2018-03-16T12:30:42.150Z,82.4
2018-03-16T12:31:42.196Z,82.41
2018-03-16T12:32:42.204Z,81.83
2018-03-16T12:33:42.193Z,80.16
2018-03-16T12:34:42.221Z,80.38
2018-03-16T12:35:42.171Z,80.89
2018-03-16T12:36:42.150Z,81.12
2018-03-16T12:37:42.243Z,80.83
2018-03-16T12:38:42.243Z,80.67
2018-03-16T12:39:42.155Z,80.56
2018-03-16T12:40:42.155Z,81.65
2018-03-16T12:41:42.276Z,79.55
2018-03-16T12:42:42.274Z,80.63
2018-03-16T12:43:42.166Z,80.09
2018-03-16T12:44:42.184Z,79.67
2018-03-16T12:45:42.172Z,79.43
2018-03-16T12:46:42.409Z,79.89
2018-03-16T12:47:42.182Z,79.01
2018-03-16T12:48:42.181Z,78.64
2018-03-16T12:49:42.216Z,77.46
2018-03-16T12:50:42.190Z,77.99
2018-03-16T12:51:42.411Z,78.28
2018-03-16T12:52:42.243Z,77.27
2018-03-16T12:53:42.246Z,76.83
2018-03-16T12:54:42.200Z,76.92
2018-03-16T12:55:42.199Z,76.89